createdAt,value
2018-06-16T00:00:59.670Z,98.20
2018-06-16T00:03:04.411Z,98.20
2018-06-16T00:05:09.247Z,98.10
2018-06-16T00:07:13.914Z,98.00
2018-06-16T00:09:18.620Z,97.60
2018-06-16T00:11:23.268Z,97.60
2018-06-16T00:13:27.979Z,97.80
2018-06-16T00:15:32.637Z,97.70
2018-06-16T00:17:37.648Z,97.70
2018-06-16T00:19:42.506Z,97.50
2018-06-16T00:21:47.144Z,97.80
2018-06-16T00:23:51.892Z,97.70
2018-06-16T00:25:56.568Z,97.50
2018-06-16T00:28:01.147Z,97.40
2018-06-16T00:30:05.956Z,97.20
2018-06-16T00:32:10.565Z,95.10
2018-06-16T00:34:15.358Z,94.90
2018-06-16T00:36:25.373Z,95.10
2018-06-16T00:38:34.740Z,94.90
2018-06-16T00:40:39.596Z,94.80
2018-06-16T00:42:44.961Z,94.70
2018-06-16T00:44:49.789Z,94.70
2018-06-16T00:46:54.955Z,94.60
2018-06-16T00:48:59.675Z,94.50
2018-06-16T00:51:04.372Z,94.60
2018-06-16T00:53:08.985Z,94.60
2018-06-16T00:55:13.761Z,94.30
2018-06-16T00:57:50.493Z,94.50
2018-06-16T00:59:55.197Z,94.30
2018-06-16T01:01:59.903Z,94.70
2018-06-16T01:04:04.589Z,94.50
2018-06-16T01:06:10.308Z,94.40
2018-06-16T01:08:14.989Z,94.40
2018-06-16T01:10:20.018Z,94.30
2018-06-16T01:12:25.154Z,94.40
2018-06-16T01:14:30.166Z,94.40
2018-06-16T01:16:34.847Z,94.20
2018-06-16T01:18:39.725Z,94.20
2018-06-16T01:20:44.384Z,94.10
2018-06-16T01:22:50.497Z,94.30
2018-06-16T01:24:55.453Z,94.20
2018-06-16T01:27:01.128Z,94.30
2018-06-16T01:29:05.802Z,94.30
2018-06-16T01:31:10.469Z,94.30
2018-06-16T01:33:15.902Z,94.40
2018-06-16T01:36:45.192Z,94.40
2018-06-16T01:38:49.942Z,94.40
2018-06-16T01:40:54.562Z,95.00
2018-06-16T01:42:59.159Z,94.70
2018-06-16T01:45:06.015Z,94.50
2018-06-16T01:47:14.796Z,94.60
2018-06-16T01:49:19.436Z,94.60
2018-06-16T01:51:24.063Z,94.80
2018-06-16T01:53:29.397Z,94.80
2018-06-16T01:55:34.293Z,94.80
2018-06-16T01:57:38.911Z,94.80
2018-06-16T01:59:43.805Z,95.00
2018-06-16T02:01:48.529Z,94.80
2018-06-16T02:03:53.167Z,95.10
2018-06-16T02:05:57.822Z,95.10
2018-06-16T02:08:02.589Z,94.70
2018-06-16T02:10:07.199Z,94.60
2018-06-16T02:12:11.819Z,94.80
2018-06-16T02:14:16.446Z,95.00
2018-06-16T02:16:21.187Z,95.00
2018-06-16T02:18:25.999Z,95.10
2018-06-16T02:20:30.637Z,95.40
2018-06-16T02:22:35.226Z,95.40
2018-06-16T02:24:40.132Z,95.50
2018-06-16T02:26:44.831Z,95.20
2018-06-16T02:28:49.474Z,95.40
2018-06-16T02:30:54.096Z,95.50
2018-06-16T02:32:58.675Z,95.50
2018-06-16T02:35:03.264Z,95.70
2018-06-16T02:37:07.962Z,95.90
2018-06-16T02:39:13.750Z,95.80
2018-06-16T02:41:19.496Z,96.00
2018-06-16T02:43:24.155Z,96.10
2018-06-16T02:45:28.983Z,96.20
2018-06-16T02:47:33.582Z,96.50
2018-06-16T02:49:38.788Z,96.60
2018-06-16T02:51:43.486Z,96.70
2018-06-16T02:53:48.244Z,96.80
2018-06-16T02:55:52.900Z,96.90
2018-06-16T02:57:57.562Z,97.00
2018-06-16T03:00:02.170Z,96.90
2018-06-16T03:02:06.909Z,96.90
2018-06-16T03:04:11.495Z,96.90
2018-06-16T03:06:16.167Z,96.80
2018-06-16T03:08:20.776Z,96.80
2018-06-16T03:10:25.404Z,96.70
2018-06-16T03:12:30.167Z,96.60
2018-06-16T03:14:34.806Z,96.60
2018-06-16T03:16:39.447Z,96.60
2018-06-16T03:18:44.214Z,96.60
2018-06-16T03:20:48.851Z,96.60
2018-06-16T03:22:53.733Z,96.50
2018-06-16T03:24:58.275Z,96.70
2018-06-16T03:27:02.998Z,96.80
2018-06-16T03:29:07.585Z,96.50
2018-06-16T03:31:12.300Z,96.70
2018-06-16T03:33:16.856Z,96.70
2018-06-16T03:35:21.491Z,97.20
2018-06-16T03:37:26.134Z,97.20
2018-06-16T03:39:30.763Z,97.50
2018-06-16T03:41:35.378Z,97.50
2018-06-16T03:43:40.016Z,97.70
2018-06-16T03:45:44.596Z,97.60
2018-06-16T03:47:49.318Z,97.50
2018-06-16T03:49:53.915Z,97.80
2018-06-16T03:51:58.637Z,97.70
2018-06-16T03:54:03.393Z,97.90
2018-06-16T03:56:08.096Z,98.10
2018-06-16T03:58:12.772Z,97.90
2018-06-16T04:00:18.483Z,97.90
2018-06-16T04:02:23.099Z,97.90
2018-06-16T04:04:27.851Z,97.80
2018-06-16T04:06:32.484Z,97.90
2018-06-16T04:08:37.120Z,97.80
2018-06-16T04:10:41.672Z,97.60
2018-06-16T04:12:46.375Z,97.60
2018-06-16T04:14:52.001Z,97.60
2018-06-16T04:16:57.947Z,97.60
2018-06-16T04:19:02.503Z,97.50
2018-06-16T04:21:07.282Z,97.30
2018-06-16T04:23:11.937Z,97.20
2018-06-16T04:25:16.606Z,97.40
2018-06-16T04:27:21.347Z,97.40
2018-06-16T04:29:25.998Z,97.60
2018-06-16T04:31:30.602Z,97.70
2018-06-16T04:33:35.209Z,97.60
2018-06-16T04:35:39.980Z,97.90
2018-06-16T04:37:44.752Z,98.10
2018-06-16T04:39:49.507Z,98.00
2018-06-16T04:41:54.209Z,98.40
2018-06-16T04:43:58.826Z,98.20
2018-06-16T04:46:03.527Z,98.00
2018-06-16T04:48:08.202Z,97.90
2018-06-16T04:50:12.875Z,97.90
2018-06-16T04:52:17.560Z,97.90
2018-06-16T04:54:22.479Z,97.80
2018-06-16T04:56:28.195Z,97.80
2018-06-16T04:58:32.959Z,97.20
2018-06-16T05:00:37.595Z,97.40
2018-06-16T05:02:42.463Z,97.50
2018-06-16T05:04:47.105Z,97.30
2018-06-16T05:06:51.831Z,97.50
2018-06-16T05:08:56.557Z,97.30
2018-06-16T05:11:01.254Z,97.10
2018-06-16T05:13:05.937Z,97.30
2018-06-16T05:15:10.530Z,97.20
2018-06-16T05:17:15.177Z,97.20
2018-06-16T05:19:20.047Z,97.50
2018-06-16T05:21:24.721Z,97.60
2018-06-16T05:23:30.715Z,97.50
2018-06-16T05:25:35.490Z,97.50
2018-06-16T05:27:40.559Z,97.70
2018-06-16T05:29:45.637Z,97.40
2018-06-16T05:31:50.439Z,97.20
2018-06-16T05:33:55.229Z,97.30
2018-06-16T05:35:59.927Z,97.10
2018-06-16T05:38:05.028Z,97.30
2018-06-16T05:40:09.767Z,97.90
2018-06-16T05:42:14.490Z,98.00
2018-06-16T05:44:19.632Z,97.70
2018-06-16T05:46:25.967Z,97.50
2018-06-16T05:48:30.627Z,97.50
2018-06-16T05:50:35.214Z,98.10
2018-06-16T05:52:39.945Z,97.90
2018-06-16T05:54:44.592Z,97.90
2018-06-16T05:56:49.345Z,97.60
2018-06-16T05:58:54.040Z,97.40
2018-06-16T06:00:58.773Z,97.50
2018-06-16T06:03:04.818Z,97.50
2018-06-16T06:05:09.424Z,97.00
2018-06-16T06:07:14.321Z,96.80
2018-06-16T06:09:19.091Z,97.30
2018-06-16T06:11:23.750Z,96.80
2018-06-16T06:13:28.373Z,96.60
2018-06-16T06:15:33.249Z,96.90
2018-06-16T06:17:37.863Z,97.10
2018-06-16T06:19:42.589Z,96.70
2018-06-16T06:21:47.390Z,96.80
2018-06-16T06:32:55.081Z,96.30
2018-06-16T06:34:59.922Z,96.20
2018-06-16T06:37:04.728Z,96.30
2018-06-16T06:39:10.202Z,95.90
2018-06-16T06:41:14.925Z,95.30
2018-06-16T06:43:20.974Z,95.30
2018-06-16T06:45:25.654Z,94.80
2018-06-16T06:47:30.481Z,94.20
2018-06-16T06:49:35.206Z,94.50
2018-06-16T06:51:40.014Z,93.80
2018-06-16T06:53:44.871Z,94.20
2018-06-16T06:55:49.624Z,94.40
2018-06-16T06:57:54.304Z,94.90
2018-06-16T06:59:59.117Z,95.20
2018-06-16T07:02:03.913Z,95.60
2018-06-16T07:04:08.817Z,95.40
2018-06-16T07:06:13.600Z,94.50
2018-06-16T07:08:18.421Z,94.10
2018-06-16T07:10:24.848Z,94.70
2018-06-16T07:12:29.599Z,93.70
2018-06-16T07:14:34.305Z,92.40
2018-06-16T07:16:39.259Z,93.10
2018-06-16T07:18:43.979Z,92.60
2018-06-16T07:20:48.702Z,91.80
2018-06-16T07:22:53.354Z,90.20
2018-06-16T07:24:58.197Z,91.50
2018-06-16T07:27:03.034Z,87.30
2018-06-16T07:29:07.907Z,88.80
2018-06-16T07:31:12.572Z,90.30
2018-06-16T07:33:17.345Z,84.40
2018-06-16T07:35:22.799Z,75.20
2018-06-16T07:37:28.156Z,73.00
2018-06-16T07:39:32.903Z,73.90
2018-06-16T07:41:38.009Z,77.00
2018-06-16T07:43:44.131Z,77.20
2018-06-16T07:45:49.040Z,78.80
2018-06-16T07:47:53.794Z,78.30
2018-06-16T07:49:58.495Z,76.50
2018-06-16T07:52:05.413Z,76.60
2018-06-16T07:54:13.290Z,78.70
2018-06-16T07:58:22.223Z,73.10
2018-06-16T08:00:26.990Z,72.10
2018-06-16T08:02:31.674Z,71.20
2018-06-16T08:04:36.395Z,73.50
2018-06-16T08:06:42.967Z,72.10
2018-06-16T08:08:47.964Z,73.30
2018-06-16T08:10:52.649Z,69.90
2018-06-16T08:12:57.395Z,66.30
2018-06-16T08:15:03.097Z,66.70
2018-06-16T08:17:07.830Z,68.10
2018-06-16T08:19:12.494Z,65.40
2018-06-16T08:21:17.374Z,62.10
2018-06-16T08:23:22.146Z,60.00
2018-06-16T08:25:29.416Z,63.50
2018-06-16T08:27:34.199Z,60.30
2018-06-16T08:29:38.944Z,63.10
2018-06-16T08:31:44.714Z,58.40
2018-06-16T08:33:50.811Z,53.60
2018-06-16T08:35:55.705Z,53.00
2018-06-16T08:38:01.609Z,49.50
2018-06-16T08:40:06.445Z,47.00
2018-06-16T08:42:12.612Z,48.60
2018-06-16T08:44:17.959Z,46.30
2018-06-16T08:46:23.982Z,43.60
2018-06-16T08:48:28.636Z,43.40
2018-06-16T08:50:33.293Z,43.50
2018-06-16T08:52:38.159Z,42.20
2018-06-16T08:54:42.823Z,45.40
2018-06-16T08:56:47.495Z,46.30
2018-06-16T08:58:52.152Z,42.90
2018-06-16T09:00:57.015Z,43.90
2018-06-16T09:03:01.669Z,43.30
2018-06-16T09:05:06.517Z,44.50
2018-06-16T09:07:11.215Z,39.40
2018-06-16T09:09:15.862Z,39.10
2018-06-16T09:11:20.715Z,40.00
2018-06-16T09:13:25.521Z,41.10
2018-06-16T09:15:30.339Z,39.60
2018-06-16T09:17:35.064Z,40.60
2018-06-16T09:19:39.829Z,40.10
2018-06-16T09:21:44.582Z,39.70
2018-06-16T09:23:49.263Z,40.30
2018-06-16T09:25:54.097Z,35.40
2018-06-16T09:27:59.898Z,39.00
2018-06-16T09:30:04.759Z,38.80
2018-06-16T09:32:09.501Z,33.00
2018-06-16T09:34:14.196Z,31.00
2018-06-16T09:36:18.963Z,34.00
2018-06-16T09:38:23.607Z,36.50
2018-06-16T09:40:28.291Z,33.10
2018-06-16T09:42:33.000Z,29.40
2018-06-16T09:44:37.574Z,29.20
2018-06-16T09:46:42.212Z,28.20
2018-06-16T09:48:46.949Z,27.90
2018-06-16T09:50:51.584Z,29.40
2018-06-16T09:52:56.243Z,29.40
2018-06-16T09:55:00.928Z,28.10
2018-06-16T09:57:05.677Z,26.60
2018-06-16T09:59:10.353Z,28.40
2018-06-16T10:01:15.112Z,30.20
2018-06-16T10:03:19.791Z,29.10
2018-06-16T10:05:24.459Z,27.60
2018-06-16T10:07:29.101Z,26.40
2018-06-16T10:09:33.667Z,25.60
2018-06-16T10:11:38.346Z,23.50
2018-06-16T10:13:43.160Z,24.70
2018-06-16T10:15:47.869Z,23.70
2018-06-16T10:17:52.591Z,23.30
2018-06-16T10:19:57.289Z,21.70
2018-06-16T10:22:01.940Z,21.70
2018-06-16T10:24:06.845Z,20.00
2018-06-16T10:26:11.452Z,18.00
2018-06-16T10:28:16.189Z,18.20
2018-06-16T10:30:20.882Z,20.20
2018-06-16T10:32:25.606Z,15.60
2018-06-16T10:34:30.316Z,15.10
2018-06-16T10:36:34.877Z,16.70
2018-06-16T10:38:39.643Z,16.50
2018-06-16T10:40:44.272Z,17.20
2018-06-16T10:42:48.904Z,12.70
2018-06-16T10:44:53.648Z,13.40
2018-06-16T10:46:58.331Z,14.10
2018-06-16T10:49:03.010Z,13.40
2018-06-16T10:51:07.641Z,7.30
2018-06-16T10:53:12.502Z,1.70
2018-06-16T10:55:17.349Z,8.60
2018-06-16T10:57:22.109Z,4.30
2018-06-16T10:59:26.901Z,5.40
2018-06-16T11:01:31.541Z,1.00
2018-06-16T11:03:36.203Z,1.30
2018-06-16T11:05:40.860Z,3.50
2018-06-16T11:07:45.526Z,1.00
2018-06-16T11:09:50.133Z,6.90
2018-06-16T11:11:55.020Z,6.30
2018-06-16T11:13:59.698Z,7.10
2018-06-16T11:16:04.346Z,5.70
2018-06-16T11:18:09.149Z,5.70
2018-06-16T11:20:13.756Z,1.00
2018-06-16T11:24:22.576Z,1.00
2018-06-16T11:26:27.606Z,4.10
2018-06-16T11:28:55.687Z,4.40
2018-06-16T11:31:06.093Z,2.90
2018-06-16T11:33:10.959Z,3.70
2018-06-16T11:35:15.662Z,2.60
2018-06-16T11:37:20.499Z,1.00
2018-06-16T11:39:25.271Z,1.00
2018-06-16T11:41:33.948Z,7.50
2018-06-16T11:43:39.092Z,1.00
2018-06-16T11:45:45.052Z,1.00
2018-06-16T11:47:50.621Z,2.00
2018-06-16T11:49:55.475Z,1.00
2018-06-16T11:52:00.242Z,1.00
2018-06-16T11:54:05.868Z,1.20
2018-06-16T11:56:10.654Z,1.00
2018-06-16T11:58:15.750Z,1.00
2018-06-16T12:00:20.462Z,1.00
2018-06-16T12:02:25.102Z,1.00
2018-06-16T12:04:29.831Z,1.00
2018-06-16T12:06:34.565Z,1.00
2018-06-16T12:08:39.536Z,1.00
2018-06-16T12:10:44.133Z,1.00
2018-06-16T12:12:48.853Z,1.00
2018-06-16T12:14:53.667Z,1.00
2018-06-16T12:16:58.226Z,1.00
2018-06-16T12:19:04.157Z,1.00
2018-06-16T12:21:08.820Z,1.00
2018-06-16T12:23:13.526Z,1.00
2018-06-16T12:25:18.472Z,1.00
2018-06-16T12:27:23.417Z,1.00
2018-06-16T12:29:28.197Z,2.50
2018-06-16T12:31:34.165Z,1.00
2018-06-16T12:33:38.888Z,1.00
2018-06-16T12:35:46.514Z,1.00
2018-06-16T12:37:51.236Z,1.00
2018-06-16T12:39:58.076Z,1.00
2018-06-16T12:42:03.169Z,1.00
2018-06-16T12:44:07.989Z,1.00
2018-06-16T12:48:17.029Z,1.00
2018-06-16T12:50:22.920Z,1.00
2018-06-16T12:52:27.901Z,1.00
2018-06-16T12:54:32.660Z,1.00
2018-06-16T12:56:37.488Z,1.00
2018-06-16T12:58:45.413Z,1.00
2018-06-16T13:00:50.061Z,1.00
2018-06-16T13:02:55.045Z,1.00
2018-06-16T13:04:59.742Z,1.00
2018-06-16T13:07:04.498Z,1.00
2018-06-16T13:09:09.161Z,1.00
2018-06-16T13:11:14.291Z,1.00
2018-06-16T13:13:18.936Z,1.00
2018-06-16T13:15:23.997Z,1.00
2018-06-16T13:17:31.448Z,1.00
2018-06-16T13:19:38.088Z,1.00
2018-06-16T13:21:42.746Z,1.00
2018-06-16T13:23:47.460Z,1.00
2018-06-16T13:25:52.160Z,1.00
2018-06-16T13:27:56.900Z,1.00
2018-06-16T13:30:01.626Z,1.00
2018-06-16T13:32:06.350Z,1.00
2018-06-16T13:34:11.083Z,1.00
2018-06-16T13:36:18.030Z,1.00
2018-06-16T13:38:22.787Z,1.00
2018-06-16T13:40:27.543Z,1.00
2018-06-16T13:42:33.055Z,1.00
2018-06-16T13:44:37.886Z,1.00
2018-06-16T13:46:42.606Z,1.00
2018-06-16T13:48:47.243Z,1.00
2018-06-16T13:50:52.040Z,1.00
2018-06-16T13:52:58.013Z,1.00
2018-06-16T13:55:03.631Z,1.00
2018-06-16T13:57:08.344Z,1.00
2018-06-16T13:59:15.097Z,1.00
2018-06-16T14:01:20.855Z,1.00
2018-06-16T14:03:25.737Z,1.00
2018-06-16T14:05:30.547Z,1.00
2018-06-16T14:07:35.260Z,1.00
2018-06-16T14:09:39.973Z,1.00
2018-06-16T14:11:44.707Z,1.00
2018-06-16T14:13:50.597Z,1.00
2018-06-16T14:15:55.373Z,1.00
2018-06-16T14:18:00.128Z,1.00
2018-06-16T14:20:05.642Z,1.00
2018-06-16T14:22:10.211Z,1.00
2018-06-16T14:24:14.949Z,1.00
2018-06-16T14:26:19.673Z,1.00
2018-06-16T14:28:24.351Z,1.00
2018-06-16T14:30:29.029Z,1.00
2018-06-16T14:32:33.686Z,1.00
2018-06-16T14:34:38.386Z,1.00
2018-06-16T14:36:49.393Z,1.00
2018-06-16T14:38:54.133Z,1.00
2018-06-16T14:40:58.823Z,1.00
2018-06-16T14:43:03.618Z,1.00
2018-06-16T14:45:08.365Z,1.00
2018-06-16T14:47:13.117Z,1.00
2018-06-16T14:49:18.187Z,1.00
2018-06-16T14:51:23.038Z,1.00
2018-06-16T14:53:27.715Z,1.00
2018-06-16T14:55:32.482Z,1.00
2018-06-16T14:57:37.170Z,1.00
2018-06-16T14:59:41.936Z,1.00
2018-06-16T15:01:46.640Z,1.00
2018-06-16T15:03:51.369Z,1.00
2018-06-16T15:05:56.403Z,1.00
2018-06-16T15:08:01.123Z,1.00
2018-06-16T15:10:05.868Z,1.00
2018-06-16T15:12:10.901Z,1.00
2018-06-16T15:14:15.535Z,1.00
2018-06-16T15:16:20.247Z,1.00
2018-06-16T15:18:24.951Z,1.00
2018-06-16T15:20:33.337Z,1.00
2018-06-16T15:22:39.102Z,1.00
2018-06-16T15:24:43.813Z,1.00
2018-06-16T15:26:48.431Z,1.00
2018-06-16T15:28:53.395Z,1.00
2018-06-16T15:30:58.102Z,1.00
2018-06-16T15:33:03.006Z,1.00
2018-06-16T15:35:07.836Z,1.00
2018-06-16T15:37:12.687Z,1.00
2018-06-16T15:39:17.482Z,1.00
2018-06-16T15:41:22.320Z,1.00
2018-06-16T15:43:26.992Z,1.00
2018-06-16T15:45:31.732Z,1.00
2018-06-16T15:47:36.494Z,1.00
2018-06-16T15:49:41.209Z,1.00
2018-06-16T15:51:45.862Z,1.00
2018-06-16T15:53:50.557Z,1.00
2018-06-16T15:55:55.311Z,1.00
2018-06-16T15:58:00.112Z,1.00
2018-06-16T16:00:05.251Z,1.00
2018-06-16T16:02:09.953Z,1.00
2018-06-16T16:04:15.174Z,1.00
2018-06-16T16:06:19.912Z,1.00
2018-06-16T16:08:24.606Z,1.00
2018-06-16T16:10:29.348Z,1.00
2018-06-16T16:12:34.012Z,1.00
2018-06-16T16:14:40.311Z,1.00
2018-06-16T16:16:45.175Z,1.00
2018-06-16T16:18:49.889Z,1.00
2018-06-16T16:20:54.732Z,1.00
2018-06-16T16:22:59.415Z,1.00
2018-06-16T16:25:04.396Z,1.00
2018-06-16T16:27:09.101Z,1.00
2018-06-16T16:29:13.704Z,1.00
2018-06-16T16:31:18.396Z,1.00
2018-06-16T16:33:23.205Z,1.00
2018-06-16T16:35:27.998Z,1.00
2018-06-16T16:37:32.706Z,1.00
2018-06-16T16:39:38.618Z,1.00
2018-06-16T16:41:44.425Z,1.00
2018-06-16T16:43:51.073Z,1.00
2018-06-16T16:45:58.951Z,1.00
2018-06-16T16:48:06.791Z,1.00
2018-06-16T16:50:14.222Z,1.00
2018-06-16T16:52:20.424Z,1.00
2018-06-16T16:54:25.924Z,1.00
2018-06-16T16:56:30.941Z,1.00
2018-06-16T16:58:41.542Z,1.00
2018-06-16T17:00:50.876Z,1.00
2018-06-16T17:02:55.580Z,1.00
2018-06-16T17:05:00.238Z,1.00
2018-06-16T17:07:05.459Z,1.00
2018-06-16T17:09:11.685Z,1.00
2018-06-16T17:11:17.568Z,1.00
2018-06-16T17:13:22.596Z,1.00
2018-06-16T17:15:27.526Z,1.00
2018-06-16T17:17:50.833Z,1.00
2018-06-16T17:19:55.547Z,1.00
2018-06-16T17:22:00.404Z,1.00
2018-06-16T17:24:05.757Z,1.00
2018-06-16T17:28:15.030Z,1.00
2018-06-16T17:30:19.765Z,1.00
2018-06-16T17:32:24.572Z,1.00
2018-06-16T17:34:29.576Z,1.00
2018-06-16T17:36:35.146Z,1.00
2018-06-16T17:38:42.253Z,1.00
2018-06-16T17:40:47.052Z,1.00
2018-06-16T17:42:52.824Z,1.00
2018-06-16T17:44:59.583Z,1.00
2018-06-16T17:47:05.490Z,1.00
2018-06-16T17:49:12.075Z,1.00
2018-06-16T17:51:17.733Z,1.00
2018-06-16T17:53:23.718Z,1.00
2018-06-16T17:55:29.250Z,1.00
2018-06-16T17:57:35.136Z,1.00
2018-06-16T17:59:43.299Z,1.00
2018-06-16T18:01:49.197Z,1.00
2018-06-16T18:03:54.816Z,1.00
2018-06-16T18:06:00.854Z,1.00
2018-06-16T18:08:09.115Z,1.00
2018-06-16T18:10:16.265Z,1.00
2018-06-16T18:12:23.926Z,1.00
2018-06-16T18:14:29.434Z,1.00
2018-06-16T18:16:36.620Z,1.00
2018-06-16T18:18:41.497Z,1.00
2018-06-16T18:20:46.191Z,1.00
2018-06-16T18:22:50.910Z,1.00
2018-06-16T18:24:55.575Z,1.00
2018-06-16T18:27:00.412Z,1.00
2018-06-16T18:29:05.615Z,1.00
2018-06-16T18:31:10.472Z,1.00
2018-06-16T18:33:15.602Z,1.00
2018-06-16T18:35:20.867Z,1.00
2018-06-16T18:37:27.055Z,1.00
2018-06-16T18:39:35.309Z,1.00
2018-06-16T18:41:41.109Z,1.00
2018-06-16T18:43:45.835Z,1.00
2018-06-16T18:45:50.689Z,1.00
2018-06-16T18:47:55.678Z,1.00
2018-06-16T18:50:03.376Z,1.00
2018-06-16T18:52:10.266Z,1.00
2018-06-16T18:54:17.075Z,1.10
2018-06-16T18:56:24.241Z,1.50
2018-06-16T18:58:29.446Z,1.90
2018-06-16T19:00:39.225Z,1.90
2018-06-16T19:02:49.473Z,2.70
2018-06-16T19:04:54.517Z,3.00
2018-06-16T19:07:15.729Z,3.80
2018-06-16T19:09:22.585Z,4.60
2018-06-16T19:11:40.440Z,4.70
2018-06-16T19:13:45.178Z,5.40
2018-06-16T19:15:50.655Z,5.40
2018-06-16T19:18:14.457Z,6.10
2018-06-16T19:20:22.263Z,6.30
2018-06-16T19:22:27.131Z,6.90
2018-06-16T19:24:31.763Z,7.20
2018-06-16T19:26:36.630Z,7.40
2018-06-16T19:28:41.373Z,7.90
2018-06-16T19:30:46.053Z,8.40
2018-06-16T19:32:50.706Z,9.20
2018-06-16T19:36:59.504Z,10.30
2018-06-16T19:39:05.880Z,10.90
2018-06-16T19:41:10.482Z,11.50
2018-06-16T19:43:15.222Z,12.20
2018-06-16T19:45:19.814Z,12.40
2018-06-16T19:47:25.173Z,13.00
2018-06-16T19:49:29.780Z,13.50
2018-06-16T19:51:34.588Z,14.40
2018-06-16T19:53:39.493Z,14.00
2018-06-16T19:55:44.251Z,14.20
2018-06-16T19:57:49.042Z,14.40
2018-06-16T19:59:53.925Z,14.40
2018-06-16T20:01:58.848Z,15.00
2018-06-16T20:04:03.500Z,14.80
2018-06-16T20:06:08.368Z,14.90
2018-06-16T20:08:13.055Z,15.00
2018-06-16T20:10:17.815Z,15.00
2018-06-16T20:12:22.493Z,15.50
2018-06-16T20:14:28.056Z,15.80
2018-06-16T20:16:32.814Z,16.20
2018-06-16T20:18:37.485Z,16.00
2018-06-16T20:20:51.577Z,16.60
2018-06-16T20:22:58.427Z,16.70
2018-06-16T20:25:03.479Z,17.10
2018-06-16T20:27:08.368Z,17.60
2018-06-16T20:29:14.319Z,17.60
2018-06-16T20:31:23.190Z,18.00
2018-06-16T20:33:28.229Z,18.40
2018-06-16T20:35:33.079Z,18.70
2018-06-16T20:37:37.763Z,19.00
2018-06-16T20:39:42.354Z,19.10
2018-06-16T20:41:47.089Z,19.30
2018-06-16T20:43:52.088Z,20.00
2018-06-16T20:45:56.875Z,20.50
2018-06-16T20:48:01.668Z,20.30
2018-06-16T20:50:07.712Z,20.40
2018-06-16T20:52:13.560Z,21.10
2018-06-16T20:54:18.152Z,21.10
2018-06-16T20:56:23.032Z,21.10
2018-06-16T20:58:27.616Z,21.90
2018-06-16T21:00:32.351Z,22.00
2018-06-16T21:02:37.364Z,22.60
2018-06-16T21:04:42.123Z,23.40
2018-06-16T21:06:46.757Z,23.20
2018-06-16T21:08:51.438Z,23.70
2018-06-16T21:10:56.069Z,24.00
2018-06-16T21:13:00.851Z,24.50
2018-06-16T21:15:05.687Z,24.20
2018-06-16T21:17:10.500Z,24.70
2018-06-16T21:19:15.127Z,25.30
2018-06-16T21:21:19.862Z,25.30
2018-06-16T21:23:24.509Z,25.30
2018-06-16T21:25:29.369Z,26.10
2018-06-16T21:27:34.063Z,25.60
2018-06-16T21:29:38.784Z,25.50
2018-06-16T21:31:43.485Z,25.60
2018-06-16T21:33:48.195Z,25.90
2018-06-16T21:35:52.857Z,27.30
2018-06-16T21:37:57.639Z,26.70
2018-06-16T21:40:02.309Z,27.20
2018-06-16T21:42:07.422Z,27.20
2018-06-16T21:44:12.091Z,27.50
2018-06-16T21:46:16.759Z,27.70
2018-06-16T21:50:25.658Z,28.00
2018-06-16T21:52:30.315Z,28.00
2018-06-16T21:54:34.996Z,28.50
2018-06-16T21:56:39.862Z,28.90
2018-06-16T21:58:44.772Z,30.00
2018-06-16T22:00:49.446Z,29.90
2018-06-16T22:02:54.039Z,30.00
2018-06-16T22:04:59.777Z,30.10
2018-06-16T22:07:04.837Z,30.00
2018-06-16T22:09:10.973Z,30.70
2018-06-16T22:11:23.153Z,30.70
2018-06-16T22:13:28.196Z,31.40
2018-06-16T22:15:35.350Z,30.60
2018-06-16T22:17:40.436Z,30.60
2018-06-16T22:19:45.544Z,31.40
2018-06-16T22:21:50.936Z,30.60
2018-06-16T22:23:56.093Z,29.60
2018-06-16T22:26:01.205Z,29.80
2018-06-16T22:28:06.236Z,30.00
2018-06-16T22:30:11.049Z,29.70
2018-06-16T22:32:16.974Z,28.90
2018-06-16T22:34:21.975Z,28.60
2018-06-16T22:36:26.724Z,27.00
2018-06-16T22:38:31.761Z,26.10
2018-06-16T22:40:36.537Z,26.00
2018-06-16T22:42:41.431Z,25.60
2018-06-16T22:44:46.097Z,25.40
2018-06-16T22:46:50.795Z,25.30
2018-06-16T22:48:55.433Z,25.20
2018-06-16T22:51:00.080Z,25.00
2018-06-16T22:53:04.710Z,25.30
2018-06-16T22:55:11.013Z,25.40
2018-06-16T22:57:15.582Z,24.60
2018-06-16T22:59:20.326Z,25.10
2018-06-16T23:01:25.049Z,25.70
2018-06-16T23:03:29.770Z,26.60
2018-06-16T23:05:34.450Z,27.20
2018-06-16T23:07:39.146Z,27.80
2018-06-16T23:09:43.777Z,28.50
2018-06-16T23:11:48.534Z,28.80
2018-06-16T23:13:53.778Z,29.80
2018-06-16T23:15:58.502Z,30.50
2018-06-16T23:18:03.204Z,31.00
2018-06-16T23:20:07.890Z,30.60
2018-06-16T23:22:12.557Z,30.80
2018-06-16T23:24:17.171Z,30.90
2018-06-16T23:26:21.903Z,31.60
2018-06-16T23:28:26.490Z,32.20
2018-06-16T23:30:31.212Z,31.80
2018-06-16T23:32:35.808Z,30.30
2018-06-16T23:34:40.570Z,30.00
2018-06-16T23:36:45.266Z,31.00
2018-06-16T23:38:49.960Z,30.00
2018-06-16T23:40:54.626Z,30.10
2018-06-16T23:42:59.312Z,30.60
2018-06-16T23:45:03.983Z,30.20
2018-06-16T23:47:08.719Z,30.00
2018-06-16T23:49:13.447Z,30.70
2018-06-16T23:51:18.177Z,31.70
2018-06-16T23:53:22.731Z,30.40
2018-06-16T23:55:27.379Z,30.00
2018-06-16T23:57:32.038Z,29.10
2018-06-16T23:59:36.777Z,29.50
